Wind From: 13-12-2017 10:08 Until: 14-12-2017 06:00 warning for: Wind Level: Yellow info button

Although rather usual in this region, locally or potentially dangerous phenomena are expected. (such as local winds, summer thunderstorms, rising streams or high waves) Be aware and pay attention to the latest weather updates, especially if you carry out activities exposed to weather or close to a stream or shoreline. 


Meteo18 Weather Cam more information Meteo18 Weather Cam


Thunder radar more information blitzortung!


Rain radar more information rain snow radar


Visit our other weather sites:

Template documentation
and downloads

And another site



Weather Underground History page Text

Daily Summary for November 23, 2017 Units:  Both    English   Metric
« Previous Day
Next Day »
Daily Weekly Monthly Yearly Custom
  High: Low: Average:
Temperature: 62.1 °F /  16.7 °C 45.5 °F /  7.5 °C 52.7 °F /  11.5 °C
Dew Point: 48.9 °F /  9.4 °C 41 °F /  5.0 °C 45 °F /  7.2 °C
Humidity: 86 % 60 % 75 %
Wind Speed: 17 mph /  27.4 km/h - 4.5 mph /  7.3 km/h
Wind Gust: 24 mph /  38.6 km/h - -
Wind:- - SW
Pressure: 30 in /  1014.4 hPa 29.7 in /  1006.7 hPa -
Precipitation: 0 in /  0.0 mm    
Historical Graphs
 
 
Tabular Data for November 23, 2017
Time Temperature Dew Point Pressure Wind Wind Speed Wind Gust Humidity Rainfall Rate (Hourly)
00:02 45.9 °F /  7.7 °C 41.4 °F /  5.2 °C 29.8 in /  1007.7 hPa SSE 1 mph /  1.6 km/h 2 mph /  3.2 km/h 84 % 0 in /  0.0 mm
00:12 45.7 °F /  7.6 °C 41.2 °F /  5.1 °C 29.8 in /  1007.7 hPa Calm   2 mph /  3.2 km/h 84 % 0 in /  0.0 mm
00:17 45.5 °F /  7.5 °C 41 °F /  5.0 °C 29.8 in /  1007.7 hPa Calm   2 mph /  3.2 km/h 84 % 0 in /  0.0 mm
00:32 45.7 °F /  7.6 °C 41.4 °F /  5.2 °C 29.7 in /  1007.3 hPa SSW 2 mph /  3.2 km/h 3 mph /  4.8 km/h 85 % 0 in /  0.0 mm
00:42 45.5 °F /  7.5 °C 41.2 °F /  5.1 °C 29.7 in /  1007.3 hPa SSW 2 mph /  3.2 km/h 3 mph /  4.8 km/h 85 % 0 in /  0.0 mm
00:47 45.7 °F /  7.6 °C 41.4 °F /  5.2 °C 29.7 in /  1007.3 hPa SSW 2 mph /  3.2 km/h 3 mph /  4.8 km/h 85 % 0 in /  0.0 mm
01:07 45.5 °F /  7.5 °C 41.5 °F /  5.3 °C 29.7 in /  1007.0 hPa SW 3 mph /  4.8 km/h 4 mph /  6.4 km/h 86 % 0 in /  0.0 mm
01:12 45.7 °F /  7.6 °C 41.7 °F /  5.4 °C 29.7 in /  1007.0 hPa SSW 4 mph /  6.4 km/h 4 mph /  6.4 km/h 86 % 0 in /  0.0 mm
01:22 45.9 °F /  7.7 °C 41.5 °F /  5.3 °C 29.7 in /  1007.0 hPa South 2 mph /  3.2 km/h 4 mph /  6.4 km/h 85 % 0 in /  0.0 mm
01:32 46 °F /  7.8 °C 41.7 °F /  5.4 °C 29.7 in /  1007.0 hPa SW 3 mph /  4.8 km/h 4 mph /  6.4 km/h 85 % 0 in /  0.0 mm
01:37 46 °F /  7.8 °C 41.7 °F /  5.4 °C 29.7 in /  1007.0 hPa SW 3 mph /  4.8 km/h 3 mph /  4.8 km/h 85 % 0 in /  0.0 mm
01:42 46.2 °F /  7.9 °C 41.9 °F /  5.5 °C 29.7 in /  1007.0 hPa SSW 1 mph /  1.6 km/h 4 mph /  6.4 km/h 85 % 0 in /  0.0 mm
01:47 46.2 °F /  7.9 °C 41.7 °F /  5.4 °C 29.7 in /  1006.7 hPa South 1 mph /  1.6 km/h 4 mph /  6.4 km/h 84 % 0 in /  0.0 mm
01:57 46.6 °F /  8.1 °C 42.1 °F /  5.6 °C 29.7 in /  1006.7 hPa South 1 mph /  1.6 km/h 4 mph /  6.4 km/h 84 % 0 in /  0.0 mm
02:02 46.6 °F /  8.1 °C 42.1 °F /  5.6 °C 29.7 in /  1006.7 hPa SW 1 mph /  1.6 km/h 4 mph /  6.4 km/h 84 % 0 in /  0.0 mm
02:12 46.6 °F /  8.1 °C 41.7 °F /  5.4 °C 29.7 in /  1006.7 hPa Calm   2 mph /  3.2 km/h 83 % 0 in /  0.0 mm
02:17 46.4 °F /  8.0 °C 41.5 °F /  5.3 °C 29.7 in /  1006.7 hPa Calm   2 mph /  3.2 km/h 83 % 0 in /  0.0 mm
02:22 46.4 °F /  8.0 °C 41.5 °F /  5.3 °C 29.7 in /  1006.7 hPa West 1 mph /  1.6 km/h 2 mph /  3.2 km/h 83 % 0 in /  0.0 mm
02:32 46.9 °F /  8.3 °C 41.7 °F /  5.4 °C 29.7 in /  1006.7 hPa Calm   2 mph /  3.2 km/h 82 % 0 in /  0.0 mm
02:42 47.1 °F /  8.4 °C 41.5 °F /  5.3 °C 29.7 in /  1006.7 hPa WSW 1 mph /  1.6 km/h 5 mph /  8.0 km/h 81 % 0 in /  0.0 mm
02:47 47.1 °F /  8.4 °C 41.5 °F /  5.3 °C 29.7 in /  1007.0 hPa WSW 1 mph /  1.6 km/h 5 mph /  8.0 km/h 81 % 0 in /  0.0 mm
02:57 47.5 °F /  8.6 °C 41.5 °F /  5.3 °C 29.7 in /  1007.0 hPa West 1 mph /  1.6 km/h 4 mph /  6.4 km/h 80 % 0 in /  0.0 mm
03:02 47.7 °F /  8.7 °C 41.7 °F /  5.4 °C 29.7 in /  1007.0 hPa SW 1 mph /  1.6 km/h 2 mph /  3.2 km/h 80 % 0 in /  0.0 mm
03:07 47.7 °F /  8.7 °C 41.7 °F /  5.4 °C 29.7 in /  1007.0 hPa West 2 mph /  3.2 km/h 2 mph /  3.2 km/h 80 % 0 in /  0.0 mm
03:12 47.8 °F /  8.8 °C 41.7 °F /  5.4 °C 29.7 in /  1007.0 hPa Calm   3 mph /  4.8 km/h 79 % 0 in /  0.0 mm
03:22 48.2 °F /  9.0 °C 41.7 °F /  5.4 °C 29.7 in /  1007.0 hPa West 1 mph /  1.6 km/h 3 mph /  4.8 km/h 78 % 0 in /  0.0 mm
03:27 48.6 °F /  9.2 °C 41.7 °F /  5.4 °C 29.7 in /  1006.7 hPa WNW 1 mph /  1.6 km/h 2 mph /  3.2 km/h 77 % 0 in /  0.0 mm
03:32 48.4 °F /  9.1 °C 41.5 °F /  5.3 °C 29.7 in /  1006.7 hPa NW 1 mph /  1.6 km/h 2 mph /  3.2 km/h 77 % 0 in /  0.0 mm
03:37 48.4 °F /  9.1 °C 41.5 °F /  5.3 °C 29.7 in /  1006.7 hPa Calm   2 mph /  3.2 km/h 77 % 0 in /  0.0 mm
03:47 48.4 °F /  9.1 °C 41.5 °F /  5.3 °C 29.7 in /  1006.7 hPa West 1 mph /  1.6 km/h 2 mph /  3.2 km/h 77 % 0 in /  0.0 mm
03:52 48.4 °F /  9.1 °C 41.5 °F /  5.3 °C 29.7 in /  1006.7 hPa Calm   2 mph /  3.2 km/h 77 % 0 in /  0.0 mm
03:57 48.7 °F /  9.3 °C 41.9 °F /  5.5 °C 29.7 in /  1006.7 hPa Calm   2 mph /  3.2 km/h 77 % 0 in /  0.0 mm
04:12 48.7 °F /  9.3 °C 41.5 °F /  5.3 °C 29.7 in /  1006.7 hPa WSW 1 mph /  1.6 km/h 2 mph /  3.2 km/h 76 % 0 in /  0.0 mm
04:22 48.7 °F /  9.3 °C 41.9 °F /  5.5 °C 29.7 in /  1007.0 hPa SW 2 mph /  3.2 km/h 3 mph /  4.8 km/h 77 % 0 in /  0.0 mm
04:32 48.7 °F /  9.3 °C 41.5 °F /  5.3 °C 29.7 in /  1006.7 hPa SSW 4 mph /  6.4 km/h 5 mph /  8.0 km/h 76 % 0 in /  0.0 mm
04:37 48.9 °F /  9.4 °C 41.7 °F /  5.4 °C 29.7 in /  1006.7 hPa SW 3 mph /  4.8 km/h 5 mph /  8.0 km/h 76 % 0 in /  0.0 mm
04:42 48.9 °F /  9.4 °C 42.1 °F /  5.6 °C 29.7 in /  1006.7 hPa SSW 6 mph /  9.7 km/h 6 mph /  9.7 km/h 77 % 0 in /  0.0 mm
04:47 48.9 °F /  9.4 °C 41.7 °F /  5.4 °C 29.7 in /  1006.7 hPa SSW 1 mph /  1.6 km/h 6 mph /  9.7 km/h 76 % 0 in /  0.0 mm
04:52 47.8 °F /  8.8 °C 41.4 °F /  5.2 °C 29.7 in /  1006.7 hPa SSW 1 mph /  1.6 km/h 6 mph /  9.7 km/h 78 % 0 in /  0.0 mm
04:57 47.5 °F /  8.6 °C 41.5 °F /  5.3 °C 29.7 in /  1007.0 hPa SSW 3 mph /  4.8 km/h 7 mph /  11.3 km/h 80 % 0 in /  0.0 mm
05:02 47.7 °F /  8.7 °C 41.7 °F /  5.4 °C 29.7 in /  1007.0 hPa South 4 mph /  6.4 km/h 7 mph /  11.3 km/h 80 % 0 in /  0.0 mm
05:07 47.7 °F /  8.7 °C 41.5 °F /  5.3 °C 29.7 in /  1006.7 hPa SSW 3 mph /  4.8 km/h 5 mph /  8.0 km/h 79 % 0 in /  0.0 mm
05:12 47.5 °F /  8.6 °C 41.5 °F /  5.3 °C 29.7 in /  1006.7 hPa SSW 3 mph /  4.8 km/h 5 mph /  8.0 km/h 80 % 0 in /  0.0 mm
05:17 47.1 °F /  8.4 °C 41.5 °F /  5.3 °C 29.7 in /  1007.0 hPa SSW 3 mph /  4.8 km/h 5 mph /  8.0 km/h 81 % 0 in /  0.0 mm
05:22 47.5 °F /  8.6 °C 41.9 °F /  5.5 °C 29.7 in /  1007.0 hPa SSW 5 mph /  8.0 km/h 6 mph /  9.7 km/h 81 % 0 in /  0.0 mm
05:32 47.5 °F /  8.6 °C 41.9 °F /  5.5 °C 29.7 in /  1007.0 hPa SSW 3 mph /  4.8 km/h 7 mph /  11.3 km/h 81 % 0 in /  0.0 mm
05:42 48 °F /  8.9 °C 42.1 °F /  5.6 °C 29.7 in /  1007.0 hPa SSW 4 mph /  6.4 km/h 6 mph /  9.7 km/h 80 % 0 in /  0.0 mm
06:02 50.5 °F /  10.3 °C 42.6 °F /  5.9 °C 29.7 in /  1007.3 hPa SSW 9 mph /  14.5 km/h 11 mph /  17.7 km/h 74 % 0 in /  0.0 mm
06:12 50.5 °F /  10.3 °C 42.6 °F /  5.9 °C 29.7 in /  1007.3 hPa SW 5 mph /  8.0 km/h 11 mph /  17.7 km/h 74 % 0 in /  0.0 mm
06:17 50.5 °F /  10.3 °C 43 °F /  6.1 °C 29.8 in /  1007.7 hPa WSW 5 mph /  8.0 km/h 10 mph /  16.1 km/h 75 % 0 in /  0.0 mm
06:22 50.5 °F /  10.3 °C 43 °F /  6.1 °C 29.7 in /  1007.3 hPa SW 5 mph /  8.0 km/h 10 mph /  16.1 km/h 75 % 0 in /  0.0 mm
06:32 50.5 °F /  10.3 °C 43 °F /  6.1 °C 29.8 in /  1007.7 hPa SW 7 mph /  11.3 km/h 8 mph /  12.9 km/h 75 % 0 in /  0.0 mm
06:37 50.4 °F /  10.2 °C 43.2 °F /  6.2 °C 29.8 in /  1007.7 hPa SW 6 mph /  9.7 km/h 10 mph /  16.1 km/h 76 % 0 in /  0.0 mm
06:42 50.4 °F /  10.2 °C 43.2 °F /  6.2 °C 29.8 in /  1007.7 hPa SSW 6 mph /  9.7 km/h 10 mph /  16.1 km/h 76 % 0 in /  0.0 mm
06:47 50.5 °F /  10.3 °C 43.3 °F /  6.3 °C 29.8 in /  1008.0 hPa SW 6 mph /  9.7 km/h 9 mph /  14.5 km/h 76 % 0 in /  0.0 mm
06:52 50.4 °F /  10.2 °C 43.2 °F /  6.2 °C 29.8 in /  1007.7 hPa SW 4 mph /  6.4 km/h 9 mph /  14.5 km/h 76 % 0 in /  0.0 mm
07:02 50.5 °F /  10.3 °C 43.3 °F /  6.3 °C 29.8 in /  1007.7 hPa SSW 3 mph /  4.8 km/h 8 mph /  12.9 km/h 76 % 0 in /  0.0 mm
07:12 50.5 °F /  10.3 °C 43.3 °F /  6.3 °C 29.8 in /  1007.7 hPa SSW 4 mph /  6.4 km/h 8 mph /  12.9 km/h 76 % 0 in /  0.0 mm
07:22 50.4 °F /  10.2 °C 43.2 °F /  6.2 °C 29.8 in /  1008.0 hPa SSW 7 mph /  11.3 km/h 9 mph /  14.5 km/h 76 % 0 in /  0.0 mm
07:42 51.4 °F /  10.8 °C 43.5 °F /  6.4 °C 29.8 in /  1008.4 hPa SW 7 mph /  11.3 km/h 11 mph /  17.7 km/h 74 % 0 in /  0.0 mm
07:47 51.3 °F /  10.7 °C 43.3 °F /  6.3 °C 29.8 in /  1008.4 hPa SW 5 mph /  8.0 km/h 11 mph /  17.7 km/h 74 % 0 in /  0.0 mm
07:57 51.3 °F /  10.7 °C 43.3 °F /  6.3 °C 29.8 in /  1008.7 hPa SW 7 mph /  11.3 km/h 10 mph /  16.1 km/h 74 % 0 in /  0.0 mm
08:02 51.6 °F /  10.9 °C 43.5 °F /  6.4 °C 29.8 in /  1008.7 hPa SW 6 mph /  9.7 km/h 10 mph /  16.1 km/h 74 % 0 in /  0.0 mm
08:12 51.3 °F /  10.7 °C 43 °F /  6.1 °C 29.8 in /  1008.7 hPa SSW 6 mph /  9.7 km/h 11 mph /  17.7 km/h 73 % 0 in /  0.0 mm
08:17 50.4 °F /  10.2 °C 42.8 °F /  6.0 °C 29.8 in /  1009.0 hPa SSW 6 mph /  9.7 km/h 11 mph /  17.7 km/h 75 % 0 in /  0.0 mm
08:32 50 °F /  10.0 °C 43.2 °F /  6.2 °C 29.8 in /  1009.4 hPa SW 7 mph /  11.3 km/h 10 mph /  16.1 km/h 77 % 0 in /  0.0 mm
08:42 50.5 °F /  10.3 °C 43.3 °F /  6.3 °C 29.8 in /  1009.4 hPa SW 7 mph /  11.3 km/h 9 mph /  14.5 km/h 76 % 0 in /  0.0 mm
08:52 50.5 °F /  10.3 °C 43.3 °F /  6.3 °C 29.8 in /  1009.7 hPa SSW 6 mph /  9.7 km/h 10 mph /  16.1 km/h 76 % 0 in /  0.0 mm
09:12 51.1 °F /  10.6 °C 44.1 °F /  6.7 °C 29.8 in /  1010.0 hPa South 2 mph /  3.2 km/h 9 mph /  14.5 km/h 77 % 0 in /  0.0 mm
09:17 51.6 °F /  10.9 °C 44.2 °F /  6.8 °C 29.8 in /  1010.0 hPa SSW 4 mph /  6.4 km/h 9 mph /  14.5 km/h 76 % 0 in /  0.0 mm
09:22 51.6 °F /  10.9 °C 44.6 °F /  7.0 °C 29.8 in /  1010.0 hPa SSE 2 mph /  3.2 km/h 8 mph /  12.9 km/h 77 % 0 in /  0.0 mm
09:32 52 °F /  11.1 °C 44.6 °F /  7.0 °C 29.8 in /  1010.0 hPa SSE 1 mph /  1.6 km/h 7 mph /  11.3 km/h 76 % 0 in /  0.0 mm
09:37 52.2 °F /  11.2 °C 44.8 °F /  7.1 °C 29.8 in /  1010.0 hPa SSW 3 mph /  4.8 km/h 6 mph /  9.7 km/h 76 % 0 in /  0.0 mm
09:42 52.3 °F /  11.3 °C 45 °F /  7.2 °C 29.8 in /  1010.4 hPa SW 2 mph /  3.2 km/h 6 mph /  9.7 km/h 76 % 0 in /  0.0 mm
09:52 52.5 °F /  11.4 °C 45.1 °F /  7.3 °C 29.8 in /  1010.4 hPa SSW 4 mph /  6.4 km/h 4 mph /  6.4 km/h 76 % 0 in /  0.0 mm
09:57 52.7 °F /  11.5 °C 45 °F /  7.2 °C 29.8 in /  1010.4 hPa SSW 5 mph /  8.0 km/h 7 mph /  11.3 km/h 75 % 0 in /  0.0 mm
10:07 52.9 °F /  11.6 °C 45.1 °F /  7.3 °C 29.8 in /  1010.7 hPa SW 8 mph /  12.9 km/h 8 mph /  12.9 km/h 75 % 0 in /  0.0 mm
10:12 52.9 °F /  11.6 °C 45.1 °F /  7.3 °C 29.8 in /  1010.7 hPa SSW 5 mph /  8.0 km/h 8 mph /  12.9 km/h 75 % 0 in /  0.0 mm
10:17 53.4 °F /  11.9 °C 45.7 °F /  7.6 °C 29.9 in /  1011.1 hPa SW 4 mph /  6.4 km/h 9 mph /  14.5 km/h 75 % 0 in /  0.0 mm
10:22 53.8 °F /  12.1 °C 45.7 °F /  7.6 °C 29.9 in /  1011.1 hPa SW 5 mph /  8.0 km/h 9 mph /  14.5 km/h 74 % 0 in /  0.0 mm
10:32 54.3 °F /  12.4 °C 46.6 °F /  8.1 °C 29.9 in /  1011.1 hPa SSW 3 mph /  4.8 km/h 8 mph /  12.9 km/h 75 % 0 in /  0.0 mm
10:47 54.3 °F /  12.4 °C 46.6 °F /  8.1 °C 29.9 in /  1011.4 hPa SSW 5 mph /  8.0 km/h 6 mph /  9.7 km/h 75 % 0 in /  0.0 mm
10:52 54.7 °F /  12.6 °C 46.9 °F /  8.3 °C 29.9 in /  1011.4 hPa SSW 7 mph /  11.3 km/h 7 mph /  11.3 km/h 75 % 0 in /  0.0 mm
11:02 55.2 °F /  12.9 °C 47.1 °F /  8.4 °C 29.9 in /  1011.4 hPa SSW 8 mph /  12.9 km/h 10 mph /  16.1 km/h 74 % 0 in /  0.0 mm
11:12 55.8 °F /  13.2 °C 47.7 °F /  8.7 °C 29.9 in /  1011.7 hPa SSW 5 mph /  8.0 km/h 12 mph /  19.3 km/h 74 % 0 in /  0.0 mm
11:22 57.2 °F /  14.0 °C 47.8 °F /  8.8 °C 29.9 in /  1011.7 hPa SSW 3 mph /  4.8 km/h 11 mph /  17.7 km/h 71 % 0 in /  0.0 mm
11:32 58.6 °F /  14.8 °C 48.6 °F /  9.2 °C 29.9 in /  1011.4 hPa SW 10 mph /  16.1 km/h 10 mph /  16.1 km/h 69 % 0 in /  0.0 mm
11:42 59.5 °F /  15.3 °C 48.9 °F /  9.4 °C 29.9 in /  1011.4 hPa SW 11 mph /  17.7 km/h 15 mph /  24.1 km/h 68 % 0 in /  0.0 mm
11:52 61.2 °F /  16.2 °C 48.4 °F /  9.1 °C 29.9 in /  1011.7 hPa SW 13 mph /  20.9 km/h 15 mph /  24.1 km/h 63 % 0 in /  0.0 mm
12:12 61.7 °F /  16.5 °C 48.6 °F /  9.2 °C 29.9 in /  1011.7 hPa SW 5 mph /  8.0 km/h 22 mph /  35.4 km/h 62 % 0 in /  0.0 mm
12:17 61.9 °F /  16.6 °C 48.7 °F /  9.3 °C 29.9 in /  1011.7 hPa SW 13 mph /  20.9 km/h 20 mph /  32.2 km/h 62 % 0 in /  0.0 mm
12:22 62.1 °F /  16.7 °C 48.4 °F /  9.1 °C 29.9 in /  1011.4 hPa SW 17 mph /  27.4 km/h 20 mph /  32.2 km/h 61 % 0 in /  0.0 mm
12:32 62.1 °F /  16.7 °C 48.9 °F /  9.4 °C 29.9 in /  1011.4 hPa SW 11 mph /  17.7 km/h 23 mph /  37.0 km/h 62 % 0 in /  0.0 mm
12:42 61.5 °F /  16.4 °C 48.7 °F /  9.3 °C 29.9 in /  1011.4 hPa SW 13 mph /  20.9 km/h 24 mph /  38.6 km/h 63 % 0 in /  0.0 mm
12:57 60.3 °F /  15.7 °C 48 °F /  8.9 °C 29.9 in /  1011.7 hPa SW 9 mph /  14.5 km/h 21 mph /  33.8 km/h 64 % 0 in /  0.0 mm
13:02 60.4 °F /  15.8 °C 48.2 °F /  9.0 °C 29.9 in /  1011.7 hPa West 13 mph /  20.9 km/h 21 mph /  33.8 km/h 64 % 0 in /  0.0 mm
13:12 60.4 °F /  15.8 °C 46.9 °F /  8.3 °C 29.9 in /  1011.7 hPa SW 15 mph /  24.1 km/h 19 mph /  30.6 km/h 61 % 0 in /  0.0 mm
13:17 61 °F /  16.1 °C 46.9 °F /  8.3 °C 29.9 in /  1011.7 hPa WSW 10 mph /  16.1 km/h 17 mph /  27.4 km/h 60 % 0 in /  0.0 mm
13:22 61 °F /  16.1 °C 46.9 °F /  8.3 °C 29.9 in /  1011.7 hPa SW 13 mph /  20.9 km/h 17 mph /  27.4 km/h 60 % 0 in /  0.0 mm
13:32 60.6 °F /  15.9 °C 46.6 °F /  8.1 °C 29.9 in /  1011.7 hPa SW 11 mph /  17.7 km/h 20 mph /  32.2 km/h 60 % 0 in /  0.0 mm
13:52 61.3 °F /  16.3 °C 47.3 °F /  8.5 °C 29.9 in /  1011.7 hPa WSW 13 mph /  20.9 km/h 17 mph /  27.4 km/h 60 % 0 in /  0.0 mm
14:02 61.3 °F /  16.3 °C 47.3 °F /  8.5 °C 29.9 in /  1011.7 hPa SSW 8 mph /  12.9 km/h 19 mph /  30.6 km/h 60 % 0 in /  0.0 mm
14:12 61.3 °F /  16.3 °C 47.8 °F /  8.8 °C 29.9 in /  1011.7 hPa SSW 10 mph /  16.1 km/h 24 mph /  38.6 km/h 61 % 0 in /  0.0 mm
14:32 61.2 °F /  16.2 °C 47.7 °F /  8.7 °C 29.9 in /  1011.7 hPa West 10 mph /  16.1 km/h 21 mph /  33.8 km/h 61 % 0 in /  0.0 mm
14:42 61.3 °F /  16.3 °C 47.8 °F /  8.8 °C 29.9 in /  1011.7 hPa SW 11 mph /  17.7 km/h 21 mph /  33.8 km/h 61 % 0 in /  0.0 mm
14:57 61.5 °F /  16.4 °C 48 °F /  8.9 °C 29.9 in /  1011.7 hPa SW 9 mph /  14.5 km/h 19 mph /  30.6 km/h 61 % 0 in /  0.0 mm
15:12 61.5 °F /  16.4 °C 48 °F /  8.9 °C 29.9 in /  1011.7 hPa SW 8 mph /  12.9 km/h 17 mph /  27.4 km/h 61 % 0 in /  0.0 mm
15:17 61.5 °F /  16.4 °C 48.4 °F /  9.1 °C 29.9 in /  1012.1 hPa SW 10 mph /  16.1 km/h 16 mph /  25.7 km/h 62 % 0 in /  0.0 mm
15:22 61.5 °F /  16.4 °C 48 °F /  8.9 °C 29.9 in /  1012.1 hPa SW 6 mph /  9.7 km/h 16 mph /  25.7 km/h 61 % 0 in /  0.0 mm
15:32 61 °F /  16.1 °C 47.8 °F /  8.8 °C 29.9 in /  1012.1 hPa SW 8 mph /  12.9 km/h 16 mph /  25.7 km/h 62 % 0 in /  0.0 mm
15:42 60.4 °F /  15.8 °C 48.2 °F /  9.0 °C 29.9 in /  1012.1 hPa SSW 8 mph /  12.9 km/h 17 mph /  27.4 km/h 64 % 0 in /  0.0 mm
15:52 59.7 °F /  15.4 °C 48 °F /  8.9 °C 29.9 in /  1012.1 hPa SW 4 mph /  6.4 km/h 13 mph /  20.9 km/h 65 % 0 in /  0.0 mm
15:57 59.7 °F /  15.4 °C 48 °F /  8.9 °C 29.9 in /  1012.1 hPa SSW 7 mph /  11.3 km/h 13 mph /  20.9 km/h 65 % 0 in /  0.0 mm
16:12 59.7 °F /  15.4 °C 48.7 °F /  9.3 °C 29.9 in /  1012.4 hPa SSW 4 mph /  6.4 km/h 15 mph /  24.1 km/h 67 % 0 in /  0.0 mm
16:17 59.5 °F /  15.3 °C 48.6 °F /  9.2 °C 29.9 in /  1012.4 hPa SW 5 mph /  8.0 km/h 11 mph /  17.7 km/h 67 % 0 in /  0.0 mm
16:22 59.7 °F /  15.4 °C 48.4 °F /  9.1 °C 29.9 in /  1012.4 hPa SSW 5 mph /  8.0 km/h 11 mph /  17.7 km/h 66 % 0 in /  0.0 mm
16:27 59.5 °F /  15.3 °C 48.6 °F /  9.2 °C 29.9 in /  1012.4 hPa SSW 3 mph /  4.8 km/h 11 mph /  17.7 km/h 67 % 0 in /  0.0 mm
16:37 58.3 °F /  14.6 °C 48.2 °F /  9.0 °C 29.9 in /  1012.4 hPa SSW 3 mph /  4.8 km/h 8 mph /  12.9 km/h 69 % 0 in /  0.0 mm
16:42 58.3 °F /  14.6 °C 48.6 °F /  9.2 °C 29.9 in /  1012.4 hPa SSW 4 mph /  6.4 km/h 7 mph /  11.3 km/h 70 % 0 in /  0.0 mm
16:52 57.6 °F /  14.2 °C 47.8 °F /  8.8 °C 29.9 in /  1012.4 hPa SSW 5 mph /  8.0 km/h 7 mph /  11.3 km/h 70 % 0 in /  0.0 mm
16:57 56.8 °F /  13.8 °C 47.5 °F /  8.6 °C 29.9 in /  1012.8 hPa SW 4 mph /  6.4 km/h 7 mph /  11.3 km/h 71 % 0 in /  0.0 mm
17:12 55.9 °F /  13.3 °C 47.1 °F /  8.4 °C 29.9 in /  1012.8 hPa SW 6 mph /  9.7 km/h 7 mph /  11.3 km/h 72 % 0 in /  0.0 mm
17:17 55.9 °F /  13.3 °C 47.1 °F /  8.4 °C 29.9 in /  1012.8 hPa SW 5 mph /  8.0 km/h 8 mph /  12.9 km/h 72 % 0 in /  0.0 mm
17:22 56.1 °F /  13.4 °C 46.8 °F /  8.2 °C 29.9 in /  1012.8 hPa SSW 5 mph /  8.0 km/h 9 mph /  14.5 km/h 71 % 0 in /  0.0 mm
17:32 55.6 °F /  13.1 °C 47.1 °F /  8.4 °C 29.9 in /  1012.8 hPa SSW 6 mph /  9.7 km/h 9 mph /  14.5 km/h 73 % 0 in /  0.0 mm
17:52 54.7 °F /  12.6 °C 46.9 °F /  8.3 °C 29.9 in /  1013.1 hPa SSW 4 mph /  6.4 km/h 8 mph /  12.9 km/h 75 % 0 in /  0.0 mm
17:57 54.5 °F /  12.5 °C 46.8 °F /  8.2 °C 29.9 in /  1013.1 hPa SSW 5 mph /  8.0 km/h 8 mph /  12.9 km/h 75 % 0 in /  0.0 mm
18:02 54.3 °F /  12.4 °C 46.6 °F /  8.1 °C 29.9 in /  1013.4 hPa SSW 4 mph /  6.4 km/h 8 mph /  12.9 km/h 75 % 0 in /  0.0 mm
18:07 54.3 °F /  12.4 °C 46.6 °F /  8.1 °C 29.9 in /  1013.4 hPa SW 7 mph /  11.3 km/h 8 mph /  12.9 km/h 75 % 0 in /  0.0 mm
18:17 54.5 °F /  12.5 °C 46.8 °F /  8.2 °C 29.9 in /  1013.4 hPa SSW 5 mph /  8.0 km/h 8 mph /  12.9 km/h 75 % 0 in /  0.0 mm
18:22 54.7 °F /  12.6 °C 46.6 °F /  8.1 °C 29.9 in /  1013.4 hPa SSW 3 mph /  4.8 km/h 8 mph /  12.9 km/h 74 % 0 in /  0.0 mm
18:27 54.7 °F /  12.6 °C 46.6 °F /  8.1 °C 29.9 in /  1013.4 hPa SW 5 mph /  8.0 km/h 8 mph /  12.9 km/h 74 % 0 in /  0.0 mm
18:42 54.7 °F /  12.6 °C 46.9 °F /  8.3 °C 29.9 in /  1013.4 hPa SW 4 mph /  6.4 km/h 7 mph /  11.3 km/h 75 % 0 in /  0.0 mm
18:52 54.9 °F /  12.7 °C 46.8 °F /  8.2 °C 29.9 in /  1013.8 hPa SW 5 mph /  8.0 km/h 7 mph /  11.3 km/h 74 % 0 in /  0.0 mm
18:57 54.7 °F /  12.6 °C 46.6 °F /  8.1 °C 29.9 in /  1013.4 hPa SW 3 mph /  4.8 km/h 7 mph /  11.3 km/h 74 % 0 in /  0.0 mm
19:07 54.3 °F /  12.4 °C 46.6 °F /  8.1 °C 29.9 in /  1013.8 hPa SW 4 mph /  6.4 km/h 6 mph /  9.7 km/h 75 % 0 in /  0.0 mm
19:12 54.1 °F /  12.3 °C 46.4 °F /  8.0 °C 29.9 in /  1013.8 hPa SW 4 mph /  6.4 km/h 5 mph /  8.0 km/h 75 % 0 in /  0.0 mm
19:22 54.3 °F /  12.4 °C 46.6 °F /  8.1 °C 29.9 in /  1013.8 hPa SW 3 mph /  4.8 km/h 6 mph /  9.7 km/h 75 % 0 in /  0.0 mm
19:32 54.3 °F /  12.4 °C 46.6 °F /  8.1 °C 29.9 in /  1013.8 hPa SW 2 mph /  3.2 km/h 6 mph /  9.7 km/h 75 % 0 in /  0.0 mm
19:42 54.1 °F /  12.3 °C 46.4 °F /  8.0 °C 29.9 in /  1013.8 hPa SSW 3 mph /  4.8 km/h 6 mph /  9.7 km/h 75 % 0 in /  0.0 mm
19:47 54.1 °F /  12.3 °C 46.4 °F /  8.0 °C 29.9 in /  1013.8 hPa SW 4 mph /  6.4 km/h 6 mph /  9.7 km/h 75 % 0 in /  0.0 mm
19:52 54.1 °F /  12.3 °C 46.4 °F /  8.0 °C 29.9 in /  1013.8 hPa SW 3 mph /  4.8 km/h 6 mph /  9.7 km/h 75 % 0 in /  0.0 mm
20:02 54 °F /  12.2 °C 46.6 °F /  8.1 °C 29.9 in /  1013.8 hPa SSW 5 mph /  8.0 km/h 7 mph /  11.3 km/h 76 % 0 in /  0.0 mm
20:07 54 °F /  12.2 °C 46.6 °F /  8.1 °C 29.9 in /  1014.1 hPa SW 5 mph /  8.0 km/h 7 mph /  11.3 km/h 76 % 0 in /  0.0 mm
20:12 53.8 °F /  12.1 °C 46.4 °F /  8.0 °C 29.9 in /  1013.8 hPa SW 3 mph /  4.8 km/h 7 mph /  11.3 km/h 76 % 0 in /  0.0 mm
20:22 53.4 °F /  11.9 °C 46.4 °F /  8.0 °C 29.9 in /  1013.8 hPa SW 3 mph /  4.8 km/h 7 mph /  11.3 km/h 77 % 0 in /  0.0 mm
20:27 53.2 °F /  11.8 °C 46.2 °F /  7.9 °C 29.9 in /  1014.1 hPa SW 4 mph /  6.4 km/h 7 mph /  11.3 km/h 77 % 0 in /  0.0 mm
20:32 53.2 °F /  11.8 °C 46.2 °F /  7.9 °C 29.9 in /  1014.1 hPa SSW 4 mph /  6.4 km/h 7 mph /  11.3 km/h 77 % 0 in /  0.0 mm
20:42 53.6 °F /  12.0 °C 46.6 °F /  8.1 °C 29.9 in /  1014.1 hPa SW 8 mph /  12.9 km/h 8 mph /  12.9 km/h 77 % 0 in /  0.0 mm
20:52 54 °F /  12.2 °C 46.6 °F /  8.1 °C 29.9 in /  1014.1 hPa SW 4 mph /  6.4 km/h 8 mph /  12.9 km/h 76 % 0 in /  0.0 mm
21:02 54 °F /  12.2 °C 46.9 °F /  8.3 °C 29.9 in /  1014.1 hPa SSW 5 mph /  8.0 km/h 8 mph /  12.9 km/h 77 % 0 in /  0.0 mm
21:07 54 °F /  12.2 °C 46.9 °F /  8.3 °C 29.9 in /  1014.1 hPa SSW 5 mph /  8.0 km/h 7 mph /  11.3 km/h 77 % 0 in /  0.0 mm
21:17 53.8 °F /  12.1 °C 46.8 °F /  8.2 °C 29.9 in /  1014.1 hPa SW 5 mph /  8.0 km/h 8 mph /  12.9 km/h 77 % 0 in /  0.0 mm
21:22 53.4 °F /  11.9 °C 46.4 °F /  8.0 °C 29.9 in /  1014.1 hPa South 4 mph /  6.4 km/h 8 mph /  12.9 km/h 77 % 0 in /  0.0 mm
21:52 51.6 °F /  10.9 °C 45.7 °F /  7.6 °C 30 in /  1014.4 hPa SW 4 mph /  6.4 km/h 5 mph /  8.0 km/h 80 % 0 in /  0.0 mm
22:02 51.4 °F /  10.8 °C 45.5 °F /  7.5 °C 30 in /  1014.4 hPa SSW 4 mph /  6.4 km/h 6 mph /  9.7 km/h 80 % 0 in /  0.0 mm
22:17 50.9 °F /  10.5 °C 45.3 °F /  7.4 °C 29.9 in /  1014.1 hPa SSW 3 mph /  4.8 km/h 6 mph /  9.7 km/h 81 % 0 in /  0.0 mm
22:27 50.9 °F /  10.5 °C 45.3 °F /  7.4 °C 29.9 in /  1014.1 hPa SSW 3 mph /  4.8 km/h 4 mph /  6.4 km/h 81 % 0 in /  0.0 mm
22:32 50.9 °F /  10.5 °C 45.3 °F /  7.4 °C 29.9 in /  1014.1 hPa SSW 3 mph /  4.8 km/h 4 mph /  6.4 km/h 81 % 0 in /  0.0 mm
22:37 51.1 °F /  10.6 °C 45.5 °F /  7.5 °C 30 in /  1014.4 hPa SSW 3 mph /  4.8 km/h 4 mph /  6.4 km/h 81 % 0 in /  0.0 mm
22:42 51.1 °F /  10.6 °C 45.5 °F /  7.5 °C 30 in /  1014.4 hPa SSW 3 mph /  4.8 km/h 4 mph /  6.4 km/h 81 % 0 in /  0.0 mm
22:57 51.1 °F /  10.6 °C 45.5 °F /  7.5 °C 29.9 in /  1014.1 hPa SSW 1 mph /  1.6 km/h 3 mph /  4.8 km/h 81 % 0 in /  0.0 mm
23:02 50.9 °F /  10.5 °C 45.3 °F /  7.4 °C 30 in /  1014.4 hPa SSW 2 mph /  3.2 km/h 3 mph /  4.8 km/h 81 % 0 in /  0.0 mm
23:07 50.7 °F /  10.4 °C 45.1 °F /  7.3 °C 30 in /  1014.4 hPa SSW 1 mph /  1.6 km/h 2 mph /  3.2 km/h 81 % 0 in /  0.0 mm
23:12 50.5 °F /  10.3 °C 45.3 °F /  7.4 °C 30 in /  1014.4 hPa SSW 2 mph /  3.2 km/h 2 mph /  3.2 km/h 82 % 0 in /  0.0 mm
23:17 50.5 °F /  10.3 °C 45.3 °F /  7.4 °C 30 in /  1014.4 hPa SSW 1 mph /  1.6 km/h 2 mph /  3.2 km/h 82 % 0 in /  0.0 mm
23:22 50.7 °F /  10.4 °C 45.5 °F /  7.5 °C 30 in /  1014.4 hPa SSW 2 mph /  3.2 km/h 2 mph /  3.2 km/h 82 % 0 in /  0.0 mm
23:32 50.9 °F /  10.5 °C 45.3 °F /  7.4 °C 30 in /  1014.4 hPa SSW 1 mph /  1.6 km/h 2 mph /  3.2 km/h 81 % 0 in /  0.0 mm
23:42 50.9 °F /  10.5 °C 45.3 °F /  7.4 °C 30 in /  1014.4 hPa SW 2 mph /  3.2 km/h 2 mph /  3.2 km/h 81 % 0 in /  0.0 mm
23:47 51.3 °F /  10.7 °C 45.7 °F /  7.6 °C 30 in /  1014.4 hPa SW 3 mph /  4.8 km/h 3 mph /  4.8 km/h 81 % 0 in /  0.0 mm
23:52 51.6 °F /  10.9 °C 45.7 °F /  7.6 °C 29.9 in /  1014.1 hPa South 1 mph /  1.6 km/h 3 mph /  4.8 km/h 80 % 0 in /  0.0 mm
23:57 51.6 °F /  10.9 °C 45.7 °F /  7.6 °C 29.9 in /  1013.8 hPa SSW 1 mph /  1.6 km/h 3 mph /  4.8 km/h 80 % 0 in /  0.0 mm
Meteo18
Compliments of Weather Underground - 4 mb

Script developed by  Jim McMurry - jmcmurry@mwt.net Adapted for the template by  Wim van der Kuil - Leuven-Template.eu

You find our weather info also at:

European Weather Network

Weather Underground

Equipment we use:

Weather-station
Davis Vue

Weather-program
Meteohub

Weather-server
Raspberry PI 2 B+

Provider
1 and 1

Davis Vue

Meteohub

Raspberry PI 2 B+

1 and 1